< < Back
Terminal Aerodrome Forecast


Current Version              Previous Versions:   1  2  3  4  5  6  7  8  9  

Terminal Aerodrome Forecast

671
FTUS42 KTAE 191700
TAFDHN
TAF
KDHN 191720Z 1918/2018 VRB04KT P6SM SKC=



Latest METAR

578
SAUS70 KWBC 202000 RRX
MTRDHN
METAR KDHN 202053Z VRB04KT 10SM CLR 18/05 A3023 RMK AO2 SLP236 T01780050
56020


USA.gov is the U.S. government's official web portal to all federal, state and local government web resources and services.